TimeICT,TemperatureF,Dew PointF,Humidity,Sea Level PressureIn,VisibilityMPH,Wind Direction,Wind SpeedMPH,Gust SpeedMPH,PrecipitationIn,Events,Conditions,WindDirDegrees,DateUTC
12:00 AM,84.2,75.2,74,29.83,5.0,Calm,Calm,-,N/A,,Mostly Cloudy,0,2012-11-07 17:00:00
12:30 AM,82.4,75.2,79,29.83,5.0,Calm,Calm,-,N/A,,Mostly Cloudy,0,2012-11-07 17:30:00
1:00 AM,83,75,71,29.81,5,Calm,Calm,,,,Partly Cloudy,,2012-11-07 18:00:00
1:00 AM,82.4,75.2,79,29.80,5.0,Calm,Calm,-,N/A,,Mostly Cloudy,0,2012-11-07 18:00:00
1:30 AM,82.4,75.2,79,29.80,5.0,Calm,Calm,-,N/A,,Mostly Cloudy,0,2012-11-07 18:30:00
2:00 AM,82.4,75.2,79,29.77,5.0,SSE,4.6,-,N/A,,Mostly Cloudy,150,2012-11-07 19:00:00
2:30 AM,82.4,75.2,79,29.77,5.0,Calm,Calm,-,N/A,,Mostly Cloudy,0,2012-11-07 19:30:00
3:00 AM,82.4,75.2,79,29.77,5.6,Calm,Calm,-,N/A,,Mostly Cloudy,0,2012-11-07 20:00:00
3:30 AM,82.4,75.2,79,29.77,5.6,Calm,Calm,-,N/A,,Mostly Cloudy,0,2012-11-07 20:30:00
4:00 AM,82.4,77.0,84,29.77,5.6,NNW,3.5,-,N/A,,Mostly Cloudy,330,2012-11-07 21:00:00
4:30 AM,82.4,77.0,84,29.77,5.6,NNW,3.5,-,N/A,,Mostly Cloudy,330,2012-11-07 21:30:00
5:00 AM,82.4,77.0,84,29.77,5.6,NNW,3.5,-,N/A,,Mostly Cloudy,330,2012-11-07 22:00:00
5:30 AM,82.4,77.0,84,29.77,5.6,NNW,3.5,-,N/A,,Mostly Cloudy,330,2012-11-07 22:30:00
6:00 AM,80.6,77.0,89,29.77,5.6,NNE,4.6,-,N/A,,Mostly Cloudy,30,2012-11-07 23:00:00
6:30 AM,80.6,77.0,89,29.80,5.6,Calm,Calm,-,N/A,,Mostly Cloudy,0,2012-11-07 23:30:00
7:00 AM,82,76,78,29.82,5,ESE,3.5,,,,Mist,120,2012-11-08 00:00:00
7:00 AM,80.6,77.0,89,29.80,5.6,ESE,3.5,-,N/A,,Mostly Cloudy,120,2012-11-08 00:00:00
7:30 AM,82.4,77.0,84,29.83,5.6,East,3.5,-,N/A,,Mostly Cloudy,90,2012-11-08 00:30:00
8:00 AM,82.4,77.0,84,29.83,5.6,East,3.5,-,N/A,,Mostly Cloudy,90,2012-11-08 01:00:00
8:30 AM,84.2,73.4,70,29.83,5.6,Calm,Calm,-,N/A,,Scattered Clouds,0,2012-11-08 01:30:00
9:00 AM,87.8,78.8,75,29.86,5.6,Calm,Calm,-,N/A,,Mostly Cloudy,0,2012-11-08 02:00:00
9:30 AM,87.8,78.8,75,29.86,5.6,Calm,Calm,-,N/A,,Mostly Cloudy,0,2012-11-08 02:30:00
10:00 AM,89.6,77.0,66,29.86,6.2,Calm,Calm,-,N/A,,Mostly Cloudy,0,2012-11-08 03:00:00
10:30 AM,91.4,77.0,63,29.83,6.2,NE,2.3,-,N/A,,Mostly Cloudy,40,2012-11-08 03:30:00
11:00 AM,89.6,77.0,66,29.83,6.2,NNW,1.2,-,N/A,,Mostly Cloudy,330,2012-11-08 04:00:00
11:30 AM,89.6,77.0,66,29.83,6.2,East,2.3,-,N/A,,Mostly Cloudy,100,2012-11-08 04:30:00
12:00 PM,89.6,77.0,66,29.80,6.2,WSW,8.1,-,N/A,,Mostly Cloudy,240,2012-11-08 05:00:00
12:30 PM,89.6,77.0,66,29.80,6.2,SSW,5.8,-,N/A,,Mostly Cloudy,210,2012-11-08 05:30:00
1:00 PM,90,76,55,29.79,6,West,12.7,,,,Partly Cloudy,260,2012-11-08 06:00:00
1:00 PM,89.6,75.2,62,29.77,6.2,West,12.7,-,N/A,,Mostly Cloudy,260,2012-11-08 06:00:00
1:30 PM,89.6,77.0,66,29.77,6.2,West,10.4,-,N/A,,Mostly Cloudy,260,2012-11-08 06:30:00
2:00 PM,87.8,77.0,70,29.74,6.2,SW,11.5,-,N/A,,Mostly Cloudy,230,2012-11-08 07:00:00
2:30 PM,87.8,77.0,70,29.74,6.2,West,8.1,-,N/A,,Mostly Cloudy,270,2012-11-08 07:30:00
3:00 PM,87.8,77.0,70,29.74,6.2,West,5.8,-,N/A,,Mostly Cloudy,270,2012-11-08 08:00:00
3:30 PM,89.6,75.2,62,29.71,6.2,West,9.2,-,N/A,,Mostly Cloudy,270,2012-11-08 08:30:00
4:00 PM,91.4,75.2,59,29.71,6.2,West,5.8,-,N/A,,Mostly Cloudy,270,2012-11-08 09:00:00
4:30 PM,91.4,75.2,59,29.71,6.2,West,9.2,-,N/A,,Mostly Cloudy,270,2012-11-08 09:30:00
5:00 PM,91.4,77.0,63,29.71,6.2,NW,4.6,-,N/A,,Mostly Cloudy,310,2012-11-08 10:00:00
5:30 PM,89.6,77.0,66,29.71,6.2,West,5.8,-,N/A,,Mostly Cloudy,280,2012-11-08 10:30:00
6:00 PM,89.6,78.8,70,29.71,6.2,West,4.6,-,N/A,,Mostly Cloudy,270,2012-11-08 11:00:00
6:30 PM,89.6,75.2,62,29.71,6.2,WSW,5.8,-,N/A,,Mostly Cloudy,250,2012-11-08 11:30:00
7:00 PM,87,78,67,29.75,6,West,4.6,,,,Scattered Clouds,270,2012-11-08 12:00:00
7:00 PM,87.8,75.2,66,29.74,6.2,West,4.6,-,N/A,,Mostly Cloudy,270,2012-11-08 12:00:00
7:30 PM,86.0,77.0,74,29.74,6.2,WSW,8.1,-,N/A,,Mostly Cloudy,240,2012-11-08 12:30:00
8:00 PM,86.0,77.0,74,29.77,6.2,South,5.8,-,N/A,,Mostly Cloudy,190,2012-11-08 13:00:00
9:00 PM,86.0,77.0,74,29.77,6.2,SW,5.8,-,N/A,,Mostly Cloudy,220,2012-11-08 14:00:00
9:30 PM,86.0,77.0,74,29.77,6.2,SW,5.8,-,N/A,,Mostly Cloudy,230,2012-11-08 14:30:00
10:00 PM,86.0,77.0,74,29.80,6.2,SSW,4.6,-,N/A,,Mostly Cloudy,200,2012-11-08 15:00:00
10:30 PM,86.0,77.0,74,29.80,6.2,SW,4.6,-,N/A,,Mostly Cloudy,230,2012-11-08 15:30:00
11:00 PM,84.2,77.0,79,29.77,6.2,SSW,4.6,-,N/A,,Mostly Cloudy,200,2012-11-08 16:00:00
11:30 PM,84.2,78.8,84,29.80,6.2,SW,3.5,-,N/A,,Mostly Cloudy,230,2012-11-08 16:30:00